Time;durP1;ratioP1;P1;durP2;ratioP2;P2;SDS_P1;SDS_P2;PMS_P1;PMS_P2;Temp;Humidity;BMP_temperature;BMP_pressure;BME280_temperature;BME280_humidity;BME280_pressure;Samples;Min_cycle;Max_cycle;Signal;HPM_P1;HPM_P2
2022/04/13 00:00:33;;;;;;;1.30;1.20;;;21.10;38.90;;;;;;5066329;28;46894;-14
2022/04/13 00:03:00;;;;;;;1.48;1.10;;;21.10;38.90;;;;;;5065783;28;48111;-26
2022/04/13 00:05:27;;;;;;;1.23;1.13;;;21.10;38.90;;;;;;5066028;28;46919;-25
2022/04/13 00:07:54;;;;;;;1.65;1.20;;;21.00;38.90;;;;;;5065423;28;46789;-14
2022/04/13 00:10:22;;;;;;;1.98;1.30;;;21.10;39.00;;;;;;5066297;28;46900;-26
2022/04/13 00:12:49;;;;;;;1.30;1.20;;;21.00;38.90;;;;;;5065732;28;49138;-26
2022/04/13 00:15:16;;;;;;;1.30;1.20;;;21.10;39.00;;;;;;5065502;28;47008;-14
2022/04/13 00:17:42;;;;;;;1.73;1.20;;;21.00;38.90;;;;;;5065830;28;46796;-26
2022/04/13 00:20:10;;;;;;;1.20;1.00;;;21.00;39.70;;;;;;5065674;28;46971;-15
2022/04/13 00:22:37;;;;;;;1.27;1.10;;;21.00;39.00;;;;;;5065292;28;46901;-26
2022/04/13 00:25:04;;;;;;;1.90;1.25;;;21.00;39.00;;;;;;5065797;28;47015;-26
2022/04/13 00:27:32;;;;;;;1.38;1.27;;;21.00;39.00;;;;;;5065555;28;46906;-26
2022/04/13 00:29:59;;;;;;;1.45;1.15;;;21.00;39.10;;;;;;5064879;28;47226;-26
2022/04/13 00:32:26;;;;;;;1.48;1.33;;;21.00;39.10;;;;;;5065186;28;48137;-14
2022/04/13 00:34:52;;;;;;;2.55;1.00;;;21.00;39.00;;;;;;5065143;28;46973;-26
2022/04/13 00:37:19;;;;;;;1.30;1.20;;;21.00;39.10;;;;;;5065100;28;47001;-26
2022/04/13 00:39:46;;;;;;;1.63;1.10;;;20.90;39.10;;;;;;5065664;28;46928;-25
2022/04/13 00:42:12;;;;;;;2.20;1.20;;;20.90;39.10;;;;;;5065239;28;48786;-14
2022/04/13 00:44:41;;;;;;;1.50;1.15;;;20.90;39.10;;;;;;5065361;28;46969;-14
2022/04/13 00:47:08;;;;;;;1.10;1.00;;;20.90;39.10;;;;;;5064904;28;47011;-26
2022/04/13 00:49:35;;;;;;;2.10;1.05;;;20.90;39.20;;;;;;5065667;28;47095;-14
2022/04/13 00:52:02;;;;;;;1.00;1.00;;;20.90;39.10;;;;;;5064998;28;47960;-26
2022/04/13 00:54:30;;;;;;;1.50;1.17;;;20.90;39.20;;;;;;5065160;28;46884;-26
2022/04/13 00:56:56;;;;;;;1.40;1.30;;;20.90;39.10;;;;;;5065267;28;46940;-15
2022/04/13 00:59:24;;;;;;;1.50;1.08;;;20.90;39.20;;;;;;5065156;28;47090;-26
2022/04/13 01:01:54;;;;;;;1.10;1.00;;;20.90;39.20;;;;;;5064749;28;47087;-24
2022/04/13 01:04:21;;;;;;;1.77;1.20;;;20.80;39.20;;;;;;5065165;28;46824;-26
2022/04/13 01:06:48;;;;;;;1.55;1.30;;;20.80;39.20;;;;;;5064955;28;47070;-26
2022/04/13 01:09:14;;;;;;;1.15;1.13;;;20.90;39.30;;;;;;5065346;28;46945;-25
2022/04/13 01:11:41;;;;;;;1.70;1.38;;;20.80;39.20;;;;;;5065119;28;47865;-14
2022/04/13 01:14:08;;;;;;;1.40;1.30;;;20.80;39.20;;;;;;5064724;28;46849;-26
2022/04/13 01:16:37;;;;;;;1.27;1.17;;;20.80;39.20;;;;;;5064716;28;46901;-14
2022/04/13 01:19:07;;;;;;;1.55;1.42;;;20.80;39.20;;;;;;5064969;28;47307;-14
2022/04/13 01:21:42;;;;;;;1.17;1.08;;;20.80;39.30;;;;;;5064443;28;48143;-26
2022/04/13 01:24:10;;;;;;;1.55;1.40;;;20.80;39.30;;;;;;5064600;28;46847;-26
2022/04/13 01:26:37;;;;;;;1.67;1.10;;;20.80;39.30;;;;;;5064555;28;46913;-26
2022/04/13 01:29:04;;;;;;;1.10;1.10;;;20.80;39.30;;;;;;5064740;28;46863;-25
2022/04/13 01:31:31;;;;;;;1.92;1.25;;;20.70;39.40;;;;;;5064731;28;49175;-26
2022/04/13 01:33:59;;;;;;;1.20;1.20;;;20.70;39.30;;;;;;5064485;28;47392;-14
2022/04/13 01:36:26;;;;;;;1.70;1.27;;;20.70;39.30;;;;;;5064757;28;46816;-14
2022/04/13 01:38:52;;;;;;;1.58;1.30;;;20.70;39.30;;;;;;5064616;28;46905;-25
2022/04/13 01:41:20;;;;;;;1.60;1.30;;;20.70;39.30;;;;;;5066061;28;48114;-26
2022/04/13 01:43:47;;;;;;;1.20;1.10;;;20.70;39.40;;;;;;5068268;28;46935;-26
2022/04/13 01:46:14;;;;;;;1.08;1.05;;;20.70;39.40;;;;;;5068040;28;46894;-25
2022/04/13 01:48:40;;;;;;;1.67;1.10;;;20.70;39.40;;;;;;5067926;28;47247;-15
2022/04/13 01:51:07;;;;;;;1.50;1.40;;;20.70;39.40;;;;;;5068324;28;48163;-14
2022/04/13 01:53:35;;;;;;;1.60;1.50;;;20.70;39.50;;;;;;5067836;28;47154;-14
2022/04/13 01:56:01;;;;;;;1.00;1.00;;;20.70;39.40;;;;;;5067876;28;46895;-26
2022/04/13 01:58:30;;;;;;;1.20;1.10;;;20.60;39.40;;;;;;5068019;28;47312;-20
2022/04/13 02:00:57;;;;;;;1.20;1.10;;;20.60;39.50;;;;;;5067562;28;48801;-25
2022/04/13 02:03:25;;;;;;;1.17;1.05;;;20.60;39.60;;;;;;5067580;28;47232;-26
2022/04/13 02:05:52;;;;;;;1.83;1.40;;;20.60;39.50;;;;;;5067628;28;46966;-14
2022/04/13 02:08:19;;;;;;;0.95;0.95;;;20.60;39.60;;;;;;5067939;28;46815;-14
2022/04/13 02:10:46;;;;;;;1.50;1.40;;;20.60;39.50;;;;;;5067675;28;48921;-25
2022/04/13 02:13:13;;;;;;;1.30;1.10;;;20.50;39.60;;;;;;5067418;28;46878;-26
2022/04/13 02:15:41;;;;;;;1.92;1.50;;;20.50;39.60;;;;;;5067540;28;46922;-15
2022/04/13 02:18:08;;;;;;;1.15;1.05;;;20.50;39.50;;;;;;5067943;28;46733;-26
2022/04/13 02:20:34;;;;;;;1.30;1.20;;;20.50;39.60;;;;;;5067490;28;47069;-21
2022/04/13 02:23:02;;;;;;;1.38;1.27;;;20.50;39.70;;;;;;5067479;28;47431;-14
2022/04/13 02:25:29;;;;;;;1.25;1.00;;;20.50;39.60;;;;;;5067535;28;46902;-25
2022/04/13 02:27:56;;;;;;;1.30;1.13;;;20.50;39.70;;;;;;5067571;28;46919;-14
2022/04/13 02:30:23;;;;;;;1.63;1.40;;;20.50;39.70;;;;;;5067493;28;49054;-14
2022/04/13 02:32:51;;;;;;;1.10;1.10;;;20.50;39.70;;;;;;5066860;28;46808;-14
2022/04/13 02:35:17;;;;;;;1.30;1.20;;;20.50;39.70;;;;;;5067420;28;47042;-14
2022/04/13 02:37:44;;;;;;;1.90;1.25;;;20.50;39.80;;;;;;5067450;28;46878;-14
2022/04/13 02:40:12;;;;;;;1.95;1.20;;;20.40;39.60;;;;;;5067240;28;49041;-14
2022/04/13 02:42:38;;;;;;;1.40;1.30;;;20.40;39.70;;;;;;5066883;28;47434;-26
2022/04/13 02:45:06;;;;;;;1.77;1.30;;;20.40;39.80;;;;;;5067403;28;46915;-15
2022/04/13 02:47:33;;;;;;;1.80;1.33;;;20.40;39.70;;;;;;5067316;28;47328;-26
2022/04/13 02:50:01;;;;;;;1.63;1.35;;;20.40;39.80;;;;;;5066787;28;47927;-25
2022/04/13 02:52:29;;;;;;;1.45;1.35;;;20.30;39.80;;;;;;5066618;28;46902;-26
2022/04/13 02:54:55;;;;;;;1.63;1.27;;;20.40;40.00;;;;;;5066950;28;46895;-14
2022/04/13 02:57:22;;;;;;;1.17;1.10;;;20.40;39.90;;;;;;5067111;28;46878;-26
2022/04/13 02:59:49;;;;;;;1.65;1.20;;;20.30;39.90;;;;;;5066759;28;47061;-25
2022/04/13 03:02:16;;;;;;;1.48;1.38;;;20.30;39.90;;;;;;5066366;28;47008;-26
2022/04/13 03:04:44;;;;;;;1.30;1.20;;;20.30;39.90;;;;;;5066857;28;46823;-25
2022/04/13 03:07:12;;;;;;;1.88;1.42;;;20.30;40.00;;;;;;5066566;28;47331;-26
2022/04/13 03:09:38;;;;;;;1.40;1.30;;;20.30;39.90;;;;;;5066698;28;48320;-14
2022/04/13 03:12:06;;;;;;;1.73;1.40;;;20.30;40.00;;;;;;5066215;28;47411;-26
2022/04/13 03:14:33;;;;;;;1.40;1.05;;;20.20;39.90;;;;;;5066538;28;46898;-26
2022/04/13 03:17:00;;;;;;;1.20;1.10;;;20.30;40.00;;;;;;5066921;28;46974;-14
2022/04/13 03:19:26;;;;;;;1.33;1.20;;;20.20;40.00;;;;;;5066316;28;47041;-14
2022/04/13 03:21:54;;;;;;;1.70;1.40;;;20.20;40.00;;;;;;5066286;28;47485;-25
2022/04/13 03:24:22;;;;;;;1.25;1.15;;;20.20;40.00;;;;;;5066377;28;46874;-25
2022/04/13 03:26:49;;;;;;;1.65;1.20;;;20.20;40.10;;;;;;5066326;28;46891;-26
2022/04/13 03:29:16;;;;;;;1.77;1.10;;;20.20;40.10;;;;;;5066604;28;48181;-14
2022/04/13 03:31:42;;;;;;;1.40;1.30;;;20.20;40.00;;;;;;5066309;28;47023;-25
2022/04/13 03:34:09;;;;;;;2.08;1.40;;;20.10;40.00;;;;;;5066679;28;46999;-14
2022/04/13 03:36:39;;;;;;;1.98;1.50;;;20.10;40.00;;;;;;5066338;28;46931;-26
2022/04/13 03:39:06;;;;;;;1.60;1.50;;;20.10;40.10;;;;;;5065948;28;48270;-14
2022/04/13 03:41:34;;;;;;;1.55;1.20;;;20.10;40.10;;;;;;5066119;28;47571;-25
2022/04/13 03:44:01;;;;;;;1.55;1.40;;;20.10;40.10;;;;;;5066410;28;46914;-14
2022/04/13 03:46:28;;;;;;;1.42;1.30;;;20.10;40.10;;;;;;5066620;28;46913;-26
2022/04/13 03:48:54;;;;;;;1.60;1.38;;;20.10;40.10;;;;;;5066072;28;48227;-26
2022/04/13 03:51:21;;;;;;;2.42;1.50;;;20.00;40.20;;;;;;5066296;28;47492;-14
2022/04/13 03:53:48;;;;;;;1.60;1.50;;;20.00;40.20;;;;;;5065656;28;47041;-26
2022/04/13 03:56:14;;;;;;;1.67;1.35;;;20.00;40.20;;;;;;5066312;28;46910;-14
2022/04/13 03:58:42;;;;;;;1.30;1.20;;;20.00;40.20;;;;;;5065738;28;46942;-14
2022/04/13 04:01:09;;;;;;;1.58;1.20;;;20.00;40.20;;;;;;5065912;28;46823;-14
2022/04/13 04:03:36;;;;;;;1.85;1.30;;;20.00;40.30;;;;;;5065283;28;47018;-14
2022/04/13 04:06:03;;;;;;;1.55;1.45;;;19.90;40.10;;;;;;5066093;28;47140;-14
2022/04/13 04:08:30;;;;;;;1.90;1.27;;;19.90;40.10;;;;;;5065292;28;46972;-14
2022/04/13 04:10:57;;;;;;;1.48;1.38;;;19.90;40.20;;;;;;5066053;28;47043;-14
2022/04/13 04:13:24;;;;;;;1.23;1.05;;;19.90;40.20;;;;;;5065462;28;46861;-14
2022/04/13 04:15:52;;;;;;;1.48;1.38;;;19.90;40.20;;;;;;5065935;28;46879;-26
2022/04/13 04:18:18;;;;;;;1.52;1.33;;;19.90;40.30;;;;;;5065366;28;46905;-14
2022/04/13 04:20:45;;;;;;;2.53;1.35;;;19.90;40.20;;;;;;5065357;28;46882;-14
2022/04/13 04:23:12;;;;;;;1.38;1.17;;;19.80;40.10;;;;;;5065740;28;46918;-15
2022/04/13 04:25:39;;;;;;;1.98;1.40;;;19.80;40.20;;;;;;5065838;28;46914;-26
2022/04/13 04:28:09;;;;;;;1.95;1.30;;;19.80;40.20;;;;;;5065033;28;48094;-26
2022/04/13 04:30:36;;;;;;;1.40;1.30;;;19.80;40.30;;;;;;5065334;28;46910;-26
2022/04/13 04:33:05;;;;;;;1.83;1.30;;;19.80;40.30;;;;;;5065553;28;46843;-26
2022/04/13 04:35:32;;;;;;;1.30;1.20;;;19.80;40.30;;;;;;5065594;28;47098;-26
2022/04/13 04:37:59;;;;;;;2.03;1.10;;;19.80;40.40;;;;;;5065581;28;47150;-14
2022/04/13 04:40:26;;;;;;;1.73;1.20;;;19.80;40.30;;;;;;5065453;28;47433;-25
2022/04/13 04:42:54;;;;;;;1.38;1.08;;;19.80;40.30;;;;;;5065328;28;46821;-14
2022/04/13 04:45:20;;;;;;;1.30;1.20;;;19.70;40.30;;;;;;5065270;28;46916;-16
2022/04/13 04:47:47;;;;;;;1.88;1.40;;;19.70;40.30;;;;;;5065088;28;47902;-14
2022/04/13 04:50:15;;;;;;;1.40;1.20;;;19.70;40.40;;;;;;5064849;28;46824;-14
2022/04/13 04:52:42;;;;;;;1.70;1.20;;;19.70;40.40;;;;;;5064969;28;46881;-14
2022/04/13 04:55:09;;;;;;;1.33;1.10;;;19.70;40.50;;;;;;5065417;28;47474;-14
2022/04/13 04:57:36;;;;;;;3.03;1.20;;;19.70;40.50;;;;;;5065013;28;49068;-26
2022/04/13 05:00:04;;;;;;;1.42;1.33;;;19.70;40.50;;;;;;5064920;28;46885;-26
2022/04/13 05:02:31;;;;;;;2.08;1.38;;;19.60;40.50;;;;;;5065037;28;46885;-14
2022/04/13 05:04:57;;;;;;;1.20;1.10;;;19.60;40.50;;;;;;5065529;28;47281;-14
2022/04/13 05:07:25;;;;;;;1.77;1.20;;;19.70;40.50;;;;;;5064594;28;47953;-14
2022/04/13 05:09:52;;;;;;;1.17;1.00;;;19.60;40.40;;;;;;5064917;28;46898;-14
2022/04/13 05:12:19;;;;;;;1.10;1.10;;;19.60;40.40;;;;;;5065067;28;46827;-14
2022/04/13 05:14:45;;;;;;;2.25;1.27;;;19.60;40.50;;;;;;5065886;28;46843;-26
2022/04/13 05:17:12;;;;;;;1.33;1.20;;;19.60;40.50;;;;;;5068498;28;47078;-14
2022/04/13 05:19:39;;;;;;;1.50;1.40;;;19.60;40.50;;;;;;5068643;28;47455;-25
2022/04/13 05:22:05;;;;;;;1.10;1.10;;;19.60;40.60;;;;;;5068067;28;46882;-14
2022/04/13 05:24:34;;;;;;;2.45;1.42;;;19.60;40.50;;;;;;5068652;28;46930;-15
2022/04/13 05:27:00;;;;;;;1.83;1.13;;;19.60;40.50;;;;;;5068043;28;49388;-26
2022/04/13 05:29:27;;;;;;;1.00;1.00;;;19.60;40.50;;;;;;5068454;28;47017;-14
2022/04/13 05:31:54;;;;;;;1.40;1.17;;;19.60;40.50;;;;;;5067944;28;46848;-14
2022/04/13 05:34:20;;;;;;;1.40;1.30;;;19.50;40.50;;;;;;5068308;28;47277;-14
2022/04/13 05:36:47;;;;;;;2.25;1.25;;;19.50;40.50;;;;;;5067631;28;46829;-14
2022/04/13 05:39:14;;;;;;;1.58;1.40;;;19.50;40.40;;;;;;5067573;28;47132;-15
2022/04/13 05:41:42;;;;;;;1.40;1.30;;;19.50;40.50;;;;;;5067504;28;47014;-15
2022/04/13 05:44:09;;;;;;;2.38;1.30;;;19.50;40.50;;;;;;5068367;28;47132;-26
2022/04/13 05:46:36;;;;;;;1.40;1.30;;;19.50;40.50;;;;;;5067124;28;47930;-26
2022/04/13 05:49:03;;;;;;;2.20;1.30;;;19.50;40.50;;;;;;5067179;28;47677;-26
2022/04/13 05:51:30;;;;;;;2.38;1.20;;;19.50;40.60;;;;;;5067578;28;47016;-26
2022/04/13 05:53:56;;;;;;;2.38;1.30;;;19.50;40.60;;;;;;5067123;28;46899;-14
2022/04/13 05:56:23;;;;;;;1.60;1.50;;;19.50;40.50;;;;;;5067820;28;49036;-14
2022/04/13 05:58:51;;;;;;;1.13;1.05;;;19.50;40.50;;;;;;5067644;28;47050;-26
2022/04/13 06:01:18;;;;;;;1.92;1.40;;;19.40;40.60;;;;;;5068029;28;46898;-26
2022/04/13 06:03:46;;;;;;;1.52;1.20;;;19.40;40.70;;;;;;5068272;28;46908;-16
2022/04/13 06:06:12;;;;;;;1.45;1.20;;;19.40;40.70;;;;;;5067594;28;47007;-15
2022/04/13 06:08:39;;;;;;;1.75;1.27;;;19.40;40.70;;;;;;5067743;28;46966;-26
2022/04/13 06:11:06;;;;;;;1.60;1.30;;;19.40;40.70;;;;;;5067565;28;46924;-25
2022/04/13 06:13:33;;;;;;;1.58;1.40;;;19.40;40.70;;;;;;5067747;28;46914;-14
2022/04/13 06:16:01;;;;;;;1.23;1.13;;;19.40;40.70;;;;;;5067478;28;47989;-14
2022/04/13 06:18:28;;;;;;;1.30;1.20;;;19.40;40.70;;;;;;5067300;28;46946;-26
2022/04/13 06:20:55;;;;;;;1.17;1.10;;;19.40;40.80;;;;;;5067539;28;46901;-14
2022/04/13 06:23:22;;;;;;;2.20;1.40;;;19.40;40.70;;;;;;5067686;28;47303;-14
2022/04/13 06:25:48;;;;;;;1.33;1.20;;;19.40;40.70;;;;;;5066832;28;48771;-18
2022/04/13 06:28:15;;;;;;;1.77;1.23;;;19.40;40.80;;;;;;5066762;28;46936;-25
2022/04/13 06:30:43;;;;;;;1.40;1.30;;;19.40;40.70;;;;;;5067244;28;46870;-15
2022/04/13 06:33:11;;;;;;;2.28;1.30;;;19.40;40.70;;;;;;5067307;28;47169;-26
2022/04/13 06:35:38;;;;;;;1.40;1.30;;;19.40;40.70;;;;;;5067199;28;48861;-26
2022/04/13 06:38:05;;;;;;;2.08;1.40;;;19.50;40.80;;;;;;5066708;28;47068;-26
2022/04/13 06:40:31;;;;;;;3.42;1.50;;;19.50;40.70;;;;;;5066181;28;47031;-14
2022/04/13 06:42:58;;;;;;;1.48;1.13;;;19.50;40.70;;;;;;5066060;28;46957;-25
2022/04/13 06:45:25;;;;;;;1.38;1.27;;;19.50;40.70;;;;;;5066871;28;49244;-15
2022/04/13 06:47:52;;;;;;;1.75;1.40;;;19.50;40.50;;;;;;5065757;28;46892;-14
2022/04/13 06:50:20;;;;;;;2.05;1.40;;;19.50;40.60;;;;;;5061121;28;46824;-26
2022/04/13 06:52:47;;;;;;;1.73;1.58;;;19.50;40.70;;;;;;5066917;28;46897;-26
2022/04/13 06:55:14;;;;;;;1.30;1.17;;;19.50;40.60;;;;;;5066253;28;49031;-25
2022/04/13 06:57:41;;;;;;;1.10;1.10;;;19.60;40.70;;;;;;5066051;28;46937;-14
2022/04/13 07:00:08;;;;;;;3.60;1.55;;;19.60;41.20;;;;;;5061152;28;46903;-26
2022/04/13 07:02:35;;;;;;;4.25;1.20;;;19.60;40.70;;;;;;5052774;28;47340;-13
2022/04/13 07:05:02;;;;;;;2.60;1.30;;;19.70;40.60;;;;;;5041984;28;49060;-14
2022/04/13 07:07:31;;;;;;;1.73;1.40;;;19.70;40.50;;;;;;5054147;28;46946;-14
2022/04/13 07:09:57;;;;;;;2.00;1.50;;;19.70;40.40;;;;;;5064146;28;46926;-14
2022/04/13 07:12:24;;;;;;;2.78;1.30;;;19.80;40.40;;;;;;5064879;28;46903;-26
2022/04/13 07:14:51;;;;;;;1.40;1.30;;;19.80;40.30;;;;;;5064090;28;48277;-26
2022/04/13 07:17:18;;;;;;;1.50;1.40;;;19.80;40.30;;;;;;5060645;28;47666;-28
2022/04/13 07:19:44;;;;;;;3.03;1.40;;;19.80;40.30;;;;;;5064626;28;47408;-26
2022/04/13 07:22:11;;;;;;;1.40;1.30;;;19.90;40.30;;;;;;5072055;28;46934;-26
2022/04/13 07:24:39;;;;;;;6.70;1.55;;;19.90;40.20;;;;;;5065667;28;49070;-26
2022/04/13 07:27:06;;;;;;;2.25;1.50;;;19.80;40.70;;;;;;5066257;28;47273;-26
2022/04/13 07:29:32;;;;;;;4.97;1.63;;;19.80;40.70;;;;;;5064751;28;47770;-27
2022/04/13 07:31:59;;;;;;;5.00;1.63;;;19.90;40.70;;;;;;5075228;28;46923;-14
2022/04/13 07:34:26;;;;;;;2.38;1.50;;;19.80;40.50;;;;;;5066694;28;48211;-14
2022/04/13 07:36:53;;;;;;;6.25;1.92;;;19.80;40.10;;;;;;5084551;28;46855;-28
2022/04/13 07:39:19;;;;;;;5.38;1.42;;;19.80;39.90;;;;;;5064039;28;46995;-15
2022/04/13 07:41:47;;;;;;;3.65;1.45;;;19.80;39.60;;;;;;5063889;28;47076;-14
2022/04/13 07:44:14;;;;;;;2.17;1.70;;;19.80;39.90;;;;;;5064146;28;47252;-27
2022/04/13 07:46:41;;;;;;;4.15;1.60;;;19.80;40.80;;;;;;5063730;28;46876;-27
2022/04/13 07:49:09;;;;;;;3.22;1.80;;;19.80;40.70;;;;;;5058256;28;47351;-27
2022/04/13 07:51:36;;;;;;;5.50;1.80;;;19.80;40.90;;;;;;5061865;28;47063;-27
2022/04/13 07:54:03;;;;;;;3.90;1.70;;;19.90;41.20;;;;;;5070372;28;47978;-27
2022/04/13 07:56:30;;;;;;;5.80;1.90;;;19.90;41.20;;;;;;5050634;28;46932;-28
2022/04/13 07:58:58;;;;;;;46.03;38.35;;;20.00;41.30;;;;;;5062753;28;46797;-31
2022/04/13 08:01:24;;;;;;;17.00;14.85;;;20.00;41.40;;;;;;5044656;28;46996;-28
2022/04/13 08:03:51;;;;;;;11.82;6.68;;;20.10;41.20;;;;;;5055692;28;49822;-27
2022/04/13 08:06:18;;;;;;;11.23;6.50;;;20.10;40.90;;;;;;5061626;28;47156;-27
2022/04/13 08:08:45;;;;;;;8.48;3.92;;;20.20;40.80;;;;;;5062631;28;46954;-26
2022/04/13 08:11:11;;;;;;;5.63;2.13;;;20.30;40.70;;;;;;5056940;28;47499;-27
2022/04/13 08:13:38;;;;;;;5.70;1.55;;;20.40;40.20;;;;;;5053870;28;48003;-24
2022/04/13 08:16:07;;;;;;;11.13;1.88;;;20.60;39.80;;;;;;5063780;28;46966;-24
2022/04/13 08:18:33;;;;;;;2.58;1.50;;;20.70;39.60;;;;;;5065072;28;47272;-27
2022/04/13 08:21:02;;;;;;;6.80;1.77;;;20.80;39.20;;;;;;5063103;28;47004;-26
2022/04/13 08:23:29;;;;;;;7.78;2.05;;;20.90;38.90;;;;;;5062708;28;48001;-28
2022/04/13 08:25:55;;;;;;;3.55;1.83;;;20.90;38.30;;;;;;5070401;28;47255;-27
2022/04/13 08:28:23;;;;;;;4.78;1.35;;;21.00;37.40;;;;;;5062959;28;46959;-27
2022/04/13 08:30:51;;;;;;;4.50;1.55;;;21.00;37.20;;;;;;5065275;28;47204;-27
2022/04/13 08:33:19;;;;;;;3.25;1.27;;;21.10;37.00;;;;;;5055991;28;47307;-27
2022/04/13 08:35:46;;;;;;;3.08;1.50;;;21.10;36.90;;;;;;5060533;28;47142;-28
2022/04/13 08:38:13;;;;;;;4.28;1.38;;;21.20;37.10;;;;;;5063644;28;46926;-26
2022/04/13 08:40:42;;;;;;;2.88;1.75;;;21.20;37.00;;;;;;5064431;28;47307;-27
2022/04/13 08:43:10;;;;;;;7.40;3.60;;;21.20;36.70;;;;;;5062765;28;47830;-27
2022/04/13 08:45:43;;;;;;;4.13;1.77;;;21.30;36.60;;;;;;5064143;28;46998;-27
2022/04/13 08:48:12;;;;;;;3.17;2.10;;;21.30;36.40;;;;;;5063167;28;47279;-27
2022/04/13 08:50:41;;;;;;;3.38;1.45;;;21.30;36.40;;;;;;5062793;28;47188;-27
2022/04/13 08:53:12;;;;;;;3.38;1.60;;;21.30;36.40;;;;;;5064559;28;49054;-27
2022/04/13 08:55:38;;;;;;;3.70;1.65;;;21.30;36.50;;;;;;5062950;28;47099;-30
2022/04/13 08:58:10;;;;;;;6.50;1.85;;;21.30;36.50;;;;;;5064472;28;46914;-32
2022/04/13 09:00:38;;;;;;;3.50;1.40;;;21.40;36.80;;;;;;5056826;28;46977;-28
2022/04/13 09:03:16;;;;;;;10.48;2.10;;;21.40;36.70;;;;;;5062217;28;47147;-28
2022/04/13 09:05:45;;;;;;;6.00;2.75;;;21.50;36.70;;;;;;5064660;28;47239;-14
2022/04/13 09:08:13;;;;;;;10.48;3.25;;;21.60;36.40;;;;;;5062472;28;46929;-15
2022/04/13 09:10:41;;;;;;;6.20;3.63;;;21.70;36.30;;;;;;5062640;28;46993;-14
2022/04/13 09:13:09;;;;;;;7.82;4.35;;;21.70;36.40;;;;;;5059687;28;46998;-15
2022/04/13 09:15:37;;;;;;;6.40;3.30;;;21.80;36.40;;;;;;5061373;28;46911;-14
2022/04/13 09:18:04;;;;;;;7.20;2.63;;;21.80;36.20;;;;;;5064444;28;47797;-14
2022/04/13 09:20:36;;;;;;;4.25;2.15;;;21.80;36.60;;;;;;5060745;28;46921;-14
2022/04/13 09:23:05;;;;;;;5.78;2.72;;;21.80;37.00;;;;;;5057377;28;47020;-16
2022/04/13 09:25:32;;;;;;;4.22;1.60;;;21.90;37.10;;;;;;5059201;28;48107;-15
2022/04/13 09:27:59;;;;;;;8.25;2.15;;;21.90;36.60;;;;;;5059277;28;47113;-14
2022/04/13 09:30:26;;;;;;;4.90;1.67;;;22.00;36.60;;;;;;5058851;28;47015;-14
2022/04/13 09:32:54;;;;;;;4.15;1.60;;;22.00;36.30;;;;;;5061630;28;48910;-19
2022/04/13 09:35:21;;;;;;;5.90;2.45;;;22.00;36.10;;;;;;5060124;28;47600;-28
2022/04/13 09:37:48;;;;;;;4.35;1.90;;;22.00;37.00;;;;;;5057453;28;47143;-15
2022/04/13 09:40:30;;;;;;;3.72;1.98;;;22.10;36.40;;;;;;5056770;28;47368;-14
2022/04/13 09:43:04;;;;;;;8.55;1.80;;;22.10;36.40;;;;;;5059497;28;48014;-14
2022/04/13 09:45:34;;;;;;;6.30;1.70;;;22.20;36.20;;;;;;5058613;28;47267;-15
2022/04/13 09:48:00;;;;;;;4.50;1.42;;;22.20;36.40;;;;;;5062080;28;46975;-15
2022/04/13 09:50:27;;;;;;;3.58;1.60;;;22.20;36.20;;;;;;5060073;28;47383;-15
2022/04/13 09:52:57;;;;;;;3.65;1.50;;;22.20;37.00;;;;;;5059064;28;47934;-18
2022/04/13 09:55:24;;;;;;;3.70;1.73;;;22.30;37.00;;;;;;5060464;28;47016;-15
2022/04/13 09:57:52;;;;;;;9.25;2.53;;;22.30;37.00;;;;;;5060598;28;47098;-28
2022/04/13 10:00:19;;;;;;;5.53;2.17;;;22.40;36.90;;;;;;5060623;28;47243;-28
2022/04/13 10:02:45;;;;;;;3.22;1.65;;;22.50;36.80;;;;;;5062912;28;47133;-28
2022/04/13 10:05:21;;;;;;;5.32;2.00;;;22.50;36.00;;;;;;5061367;28;47009;-28
2022/04/13 10:08:01;;;;;;;5.28;1.83;;;22.60;36.20;;;;;;5064278;28;47149;-28
2022/04/13 10:10:28;;;;;;;5.82;1.83;;;22.60;36.20;;;;;;5063122;28;47148;-31
2022/04/13 10:12:56;;;;;;;4.13;1.77;;;22.70;36.00;;;;;;5064592;28;48065;-28
2022/04/13 10:15:24;;;;;;;4.05;2.65;;;22.70;36.20;;;;;;5064106;28;47316;-28
2022/04/13 10:17:50;;;;;;;6.90;2.50;;;22.70;36.10;;;;;;5064298;28;47359;-28
2022/04/13 10:20:17;;;;;;;5.38;2.85;;;22.80;36.00;;;;;;5064339;28;47244;-28
2022/04/13 10:23:00;;;;;;;3.95;2.28;;;22.80;36.10;;;;;;5060135;28;47021;-15
2022/04/13 10:25:27;;;;;;;5.40;2.65;;;22.90;35.50;;;;;;5061712;28;47179;-15
2022/04/13 10:27:56;;;;;;;5.78;2.70;;;22.90;35.60;;;;;;5064794;28;47037;-16
2022/04/13 10:30:29;;;;;;;6.05;2.70;;;23.00;35.40;;;;;;5062660;28;47356;-28
2022/04/13 10:33:00;;;;;;;3.50;2.20;;;23.10;35.50;;;;;;5059546;28;48067;-29
2022/04/13 10:35:28;;;;;;;3.63;1.73;;;23.20;34.90;;;;;;5063788;28;46943;-28
2022/04/13 10:37:55;;;;;;;2.83;1.63;;;23.20;34.30;;;;;;5063972;28;47178;-28
2022/04/13 10:40:23;;;;;;;2.35;1.88;;;23.30;33.60;;;;;;5060386;28;46946;-28
2022/04/13 10:42:50;;;;;;;7.50;1.80;;;23.30;33.40;;;;;;5060882;28;49174;-28
2022/04/13 10:45:18;;;;;;;2.00;1.80;;;23.40;33.50;;;;;;5063906;28;46947;-28
2022/04/13 10:47:55;;;;;;;2.88;1.35;;;23.50;33.80;;;;;;5066182;28;46898;-29
2022/04/13 10:50:30;;;;;;;4.57;1.52;;;23.50;32.60;;;;;;5062079;28;47101;-29
2022/04/13 10:52:58;;;;;;;4.22;1.25;;;23.60;33.10;;;;;;5056230;28;48144;-28
2022/04/13 10:55:27;;;;;;;5.43;1.60;;;23.60;32.90;;;;;;5061937;28;46948;-28
2022/04/13 10:57:54;;;;;;;5.32;1.55;;;23.70;33.20;;;;;;5061028;28;46949;-28
2022/04/13 11:00:23;;;;;;;2.15;1.20;;;23.80;33.80;;;;;;5060462;28;47053;-29
2022/04/13 11:02:53;;;;;;;2.63;1.40;;;23.80;32.20;;;;;;5062873;28;48092;-28
2022/04/13 11:05:19;;;;;;;1.77;1.50;;;23.90;31.80;;;;;;5063932;28;47141;-28
2022/04/13 11:07:46;;;;;;;2.05;1.27;;;24.00;32.20;;;;;;5065064;28;46921;-28
2022/04/13 11:10:17;;;;;;;4.78;1.40;;;24.10;32.50;;;;;;5065152;28;47075;-28
2022/04/13 11:12:44;;;;;;;6.18;1.98;;;24.20;32.90;;;;;;5065036;28;49071;-29
2022/04/13 11:15:11;;;;;;;6.30;1.50;;;24.20;33.50;;;;;;5065183;28;46962;-28
2022/04/13 11:17:43;;;;;;;5.82;1.80;;;24.30;32.70;;;;;;5064588;28;46947;-27
2022/04/13 11:20:17;;;;;;;7.00;1.35;;;24.40;32.60;;;;;;5064527;28;47220;-27
2022/04/13 11:22:44;;;;;;;8.55;1.90;;;24.50;32.50;;;;;;5062329;28;49069;-15
2022/04/13 11:25:11;;;;;;;2.50;1.90;;;24.50;32.80;;;;;;5064302;28;46914;-15
2022/04/13 11:27:56;;;;;;;4.72;1.67;;;24.50;32.50;;;;;;5061640;28;46892;-15
2022/04/13 11:30:24;;;;;;;6.40;1.63;;;24.60;31.90;;;;;;5064154;28;46947;-15
2022/04/13 11:32:58;;;;;;;11.35;2.45;;;24.60;32.30;;;;;;5063429;28;48881;-15
2022/04/13 11:35:26;;;;;;;6.57;2.95;;;24.70;32.00;;;;;;5063507;28;47043;-17
2022/04/13 11:38:04;;;;;;;7.43;2.15;;;24.60;31.30;;;;;;5064569;28;46895;-15
2022/04/13 11:40:32;;;;;;;12.00;1.85;;;24.70;32.20;;;;;;5062782;28;47022;-15
2022/04/13 11:42:59;;;;;;;5.68;1.60;;;24.80;32.00;;;;;;5064219;28;47973;-14
2022/04/13 11:45:26;;;;;;;5.45;1.88;;;24.90;31.70;;;;;;5063330;28;47389;-15
2022/04/13 11:47:56;;;;;;;5.30;1.45;;;25.00;32.10;;;;;;5064509;28;46931;-14
2022/04/13 11:50:25;;;;;;;4.82;1.52;;;25.10;31.20;;;;;;5062714;28;46988;-15
2022/04/13 11:52:53;;;;;;;3.22;2.00;;;25.20;31.20;;;;;;5063974;28;46947;-16
2022/04/13 11:55:22;;;;;;;1.77;1.67;;;25.30;30.90;;;;;;5063879;28;46961;-15
2022/04/13 11:58:19;;;;;;;6.80;1.80;;;25.30;31.10;;;;;;5060861;28;47102;-28
2022/04/13 12:00:49;;;;;;;3.30;1.92;;;25.40;31.00;;;;;;5060878;28;47038;-28
2022/04/13 12:03:19;;;;;;;6.50;4.22;;;25.50;31.40;;;;;;5061514;28;47089;-28
2022/04/13 12:05:47;;;;;;;4.28;2.65;;;25.60;30.50;;;;;;5061664;28;46946;-28
2022/04/13 12:08:16;;;;;;;4.88;2.60;;;25.70;30.60;;;;;;5063632;28;46960;-29
2022/04/13 12:10:45;;;;;;;5.50;2.30;;;25.70;30.50;;;;;;5064460;28;47307;-29
2022/04/13 12:13:12;;;;;;;4.45;1.60;;;25.80;30.20;;;;;;5063233;28;47928;-31
2022/04/13 12:15:43;;;;;;;8.10;2.03;;;25.90;30.30;;;;;;5063504;28;47700;-31
2022/04/13 12:18:10;;;;;;;4.05;1.95;;;26.00;30.50;;;;;;5062947;28;47104;-30
2022/04/13 12:20:38;;;;;;;4.47;1.77;;;26.00;30.60;;;;;;5064047;28;47117;-29
2022/04/13 12:23:18;;;;;;;4.82;1.70;;;26.00;29.90;;;;;;5063203;28;47908;-31
2022/04/13 12:25:45;;;;;;;4.53;1.58;;;26.10;30.30;;;;;;5059152;28;46844;-29
2022/04/13 12:28:12;;;;;;;4.53;1.20;;;26.10;30.50;;;;;;5063067;28;46845;-29
2022/04/13 12:30:39;;;;;;;4.22;1.73;;;26.20;30.60;;;;;;5064061;28;46945;-29
2022/04/13 12:33:12;;;;;;;2.75;1.50;;;26.30;30.70;;;;;;5063651;28;47948;-30
2022/04/13 12:35:48;;;;;;;6.10;1.80;;;26.30;29.80;;;;;;5044673;28;47065;-28
2022/04/13 12:38:25;;;;;;;7.07;2.08;;;26.30;30.00;;;;;;5063159;28;46864;-28
2022/04/13 12:41:19;;;;;;;3.80;1.90;;;26.50;30.00;;;;;;5065524;28;47069;-28
2022/04/13 12:43:51;;;;;;;8.25;2.28;;;26.50;30.00;;;;;;5049051;28;47960;-28
2022/04/13 12:46:18;;;;;;;6.90;2.78;;;26.60;30.00;;;;;;5061159;28;47609;-28
2022/04/13 12:48:46;;;;;;;6.38;2.03;;;26.60;30.00;;;;;;5062133;28;46974;-28